createdAt,value
2018-09-22T00:02:00.456Z,99.90
2018-09-22T00:04:29.977Z,99.90
2018-09-22T00:06:58.192Z,99.90
2018-09-22T00:09:26.764Z,99.90
2018-09-22T00:11:55.312Z,99.90
2018-09-22T00:14:23.481Z,99.90
2018-09-22T00:16:51.637Z,99.90
2018-09-22T00:19:19.865Z,99.90
2018-09-22T00:21:48.730Z,99.90
2018-09-22T00:24:16.892Z,99.90
2018-09-22T00:26:45.021Z,99.90
2018-09-22T00:29:13.189Z,99.90
2018-09-22T00:31:41.304Z,99.90
2018-09-22T00:34:09.501Z,99.90
2018-09-22T00:36:37.690Z,99.90
2018-09-22T00:39:07.131Z,99.90
2018-09-22T00:41:35.350Z,99.90
2018-09-22T00:44:03.850Z,99.90
2018-09-22T00:46:32.890Z,99.90
2018-09-22T00:49:01.032Z,99.90
2018-09-22T00:51:29.245Z,99.90
2018-09-22T00:53:58.110Z,99.90
2018-09-22T00:56:27.740Z,99.90
2018-09-22T00:58:55.882Z,99.90
2018-09-22T01:01:24.065Z,99.90
2018-09-22T01:03:53.169Z,99.90
2018-09-22T01:06:21.936Z,99.90
2018-09-22T01:08:50.048Z,99.90
2018-09-22T01:11:18.839Z,99.90
2018-09-22T01:13:46.996Z,99.90
2018-09-22T01:16:15.144Z,99.90
2018-09-22T01:18:43.349Z,99.90
2018-09-22T01:21:11.549Z,99.90
2018-09-22T01:23:39.798Z,99.90
2018-09-22T01:26:07.988Z,99.90
2018-09-22T01:28:36.173Z,99.90
2018-09-22T01:31:04.354Z,99.90
2018-09-22T01:33:32.562Z,99.90
2018-09-22T01:36:01.061Z,99.90
2018-09-22T01:38:29.988Z,99.90
2018-09-22T01:40:59.937Z,99.90
2018-09-22T01:43:28.122Z,99.90
2018-09-22T01:45:56.324Z,99.90
2018-09-22T01:48:24.897Z,99.90
2018-09-22T01:50:53.952Z,99.90
2018-09-22T01:53:22.113Z,99.90
2018-09-22T01:55:51.141Z,99.90
2018-09-22T01:58:19.309Z,99.90
2018-09-22T02:00:47.509Z,99.90
2018-09-22T02:03:15.644Z,99.90
2018-09-22T02:05:43.768Z,99.90
2018-09-22T02:08:11.917Z,99.90
2018-09-22T02:10:40.220Z,99.90
2018-09-22T02:13:08.733Z,99.90
2018-09-22T02:15:37.015Z,99.90
2018-09-22T02:18:05.213Z,99.90
2018-09-22T02:20:34.352Z,99.90
2018-09-22T02:23:04.077Z,99.90
2018-09-22T02:25:32.789Z,99.90
2018-09-22T02:28:00.949Z,99.90
2018-09-22T02:30:29.091Z,99.90
2018-09-22T02:32:57.325Z,99.90
2018-09-22T02:35:25.565Z,99.90
2018-09-22T02:37:53.745Z,99.90
2018-09-22T02:40:21.921Z,99.90
2018-09-22T02:42:50.527Z,99.90
2018-09-22T02:45:18.696Z,99.90
2018-09-22T02:47:47.518Z,99.90
2018-09-22T02:50:15.661Z,99.90
2018-09-22T02:52:43.849Z,99.90
2018-09-22T02:55:12.243Z,99.90
2018-09-22T02:57:40.797Z,99.90
2018-09-22T03:00:08.951Z,99.90
2018-09-22T03:02:37.400Z,99.90
2018-09-22T03:05:05.571Z,99.90
2018-09-22T03:07:33.744Z,99.90
2018-09-22T03:10:02.537Z,99.90
2018-09-22T03:12:30.717Z,99.90
2018-09-22T03:14:59.880Z,99.90
2018-09-22T03:17:28.054Z,99.90
2018-09-22T03:19:56.729Z,99.90
2018-09-22T03:22:24.897Z,99.90
2018-09-22T03:24:53.109Z,99.90
2018-09-22T03:27:21.304Z,99.90
2018-09-22T03:29:49.467Z,99.90
2018-09-22T03:32:19.086Z,99.90
2018-09-22T03:34:47.265Z,99.90
2018-09-22T03:37:15.451Z,99.90
2018-09-22T03:39:44.052Z,99.90
2018-09-22T03:42:13.213Z,99.90
2018-09-22T03:44:41.454Z,99.90
2018-09-22T03:47:09.639Z,99.90
2018-09-22T03:49:38.483Z,99.90
2018-09-22T03:52:06.646Z,99.90
2018-09-22T03:54:34.781Z,99.90
2018-09-22T03:57:03.211Z,99.90
2018-09-22T03:59:31.726Z,99.90
2018-09-22T04:01:59.885Z,99.90
2018-09-22T04:04:28.060Z,99.90
2018-09-22T04:06:56.186Z,99.90
2018-09-22T04:09:24.362Z,99.90
2018-09-22T04:11:52.549Z,99.90
2018-09-22T04:14:21.893Z,99.90
2018-09-22T04:16:50.224Z,99.90
2018-09-22T04:19:18.353Z,99.90
2018-09-22T04:21:46.524Z,99.90
2018-09-22T04:24:17.662Z,99.90
2018-09-22T04:26:46.797Z,99.90
2018-09-22T04:29:14.937Z,99.90
2018-09-22T04:31:43.194Z,99.90
2018-09-22T04:34:11.601Z,99.90
2018-09-22T04:36:39.784Z,99.90
2018-09-22T04:39:08.861Z,99.90
2018-09-22T04:41:38.179Z,99.90
2018-09-22T04:44:06.845Z,99.90
2018-09-22T04:46:35.121Z,99.90
2018-09-22T04:49:03.828Z,99.90
2018-09-22T04:51:32.033Z,99.90
2018-09-22T04:54:00.349Z,99.90
2018-09-22T04:56:28.756Z,99.90
2018-09-22T04:58:57.326Z,99.90
2018-09-22T05:01:26.177Z,99.90
2018-09-22T05:03:54.597Z,99.90
2018-09-22T05:06:22.805Z,99.90
2018-09-22T05:08:51.972Z,99.90
2018-09-22T05:11:20.136Z,99.90
2018-09-22T05:13:48.299Z,99.90
2018-09-22T05:16:18.173Z,99.90
2018-09-22T05:18:46.667Z,99.90
2018-09-22T05:21:14.816Z,99.90
2018-09-22T05:23:43.014Z,99.90
2018-09-22T05:26:11.228Z,99.90
2018-09-22T05:28:39.394Z,99.90
2018-09-22T05:31:07.784Z,99.90
2018-09-22T05:33:35.936Z,99.90
2018-09-22T05:36:04.812Z,99.90
2018-09-22T05:38:33.005Z,99.90
2018-09-22T05:41:01.669Z,99.90
2018-09-22T05:43:29.826Z,99.90
2018-09-22T05:45:58.020Z,99.90
2018-09-22T05:48:26.201Z,99.90
2018-09-22T05:50:54.358Z,99.90
2018-09-22T05:53:22.779Z,99.90
2018-09-22T05:55:50.993Z,99.90
2018-09-22T05:58:19.141Z,99.90
2018-09-22T06:00:47.268Z,99.90
2018-09-22T06:03:15.436Z,99.90
2018-09-22T06:05:43.648Z,99.90
2018-09-22T06:08:13.117Z,99.90
2018-09-22T06:10:41.269Z,99.90
2018-09-22T06:13:09.472Z,99.90
2018-09-22T06:15:37.608Z,99.90
2018-09-22T06:18:05.741Z,99.90
2018-09-22T06:20:35.804Z,99.90
2018-09-22T06:23:04.011Z,99.90
2018-09-22T06:25:32.249Z,99.90
2018-09-22T06:28:00.451Z,99.90
2018-09-22T06:30:29.549Z,99.90
2018-09-22T06:32:57.713Z,99.90
2018-09-22T06:35:25.876Z,99.90
2018-09-22T06:37:54.257Z,99.90
2018-09-22T06:40:22.442Z,99.90
2018-09-22T06:42:50.632Z,99.90
2018-09-22T06:45:18.781Z,99.90
2018-09-22T06:47:47.240Z,99.90
2018-09-22T06:50:15.854Z,99.90
2018-09-22T06:52:45.061Z,99.90
2018-09-22T06:55:13.217Z,99.90
2018-09-22T06:57:41.387Z,99.90
2018-09-22T07:00:09.557Z,99.90
2018-09-22T07:02:38.224Z,99.90
2018-09-22T07:05:06.369Z,99.90
2018-09-22T07:07:35.097Z,99.90
2018-09-22T07:10:03.979Z,99.90
2018-09-22T07:12:32.306Z,99.90
2018-09-22T07:15:00.566Z,99.90
2018-09-22T07:17:28.930Z,99.90
2018-09-22T07:19:57.090Z,99.90
2018-09-22T07:22:30.830Z,99.90
2018-09-22T07:24:59.054Z,99.90
2018-09-22T07:27:27.360Z,99.90
2018-09-22T07:29:55.680Z,99.90
2018-09-22T07:32:23.809Z,99.90
2018-09-22T07:34:52.024Z,99.90
2018-09-22T07:37:20.198Z,99.90
2018-09-22T07:39:49.256Z,99.90
2018-09-22T07:42:17.442Z,99.90
2018-09-22T07:44:45.611Z,99.90
2018-09-22T07:47:13.812Z,99.90
2018-09-22T07:49:41.964Z,99.90
2018-09-22T07:52:10.288Z,99.90
2018-09-22T07:54:39.041Z,99.90
2018-09-22T07:57:07.270Z,99.90
2018-09-22T07:59:35.429Z,99.90
2018-09-22T08:02:03.657Z,99.90
2018-09-22T08:04:32.641Z,99.90
2018-09-22T08:07:00.793Z,99.90
2018-09-22T08:09:28.989Z,99.90
2018-09-22T08:11:57.137Z,99.90
2018-09-22T08:14:25.321Z,99.90
2018-09-22T08:16:53.496Z,99.90
2018-09-22T08:19:22.000Z,99.90
2018-09-22T08:21:50.225Z,99.90
2018-09-22T08:24:18.341Z,99.90
2018-09-22T08:26:46.500Z,99.90
2018-09-22T08:29:14.716Z,99.90
2018-09-22T08:31:43.953Z,99.90
2018-09-22T08:34:12.146Z,99.90
2018-09-22T08:36:40.433Z,99.90
2018-09-22T08:39:11.008Z,99.90
2018-09-22T08:41:40.826Z,99.90
2018-09-22T08:44:09.209Z,99.90
2018-09-22T08:46:38.508Z,99.90
2018-09-22T08:49:06.754Z,99.90
2018-09-22T08:51:35.045Z,99.90
2018-09-22T08:54:05.181Z,99.90
2018-09-22T08:56:33.341Z,99.90
2018-09-22T08:59:01.888Z,99.90
2018-09-22T09:01:30.853Z,99.90
2018-09-22T09:03:59.057Z,99.90
2018-09-22T09:06:27.212Z,99.90
2018-09-22T09:08:55.389Z,99.90
2018-09-22T09:11:23.588Z,99.90
2018-09-22T09:13:51.677Z,99.90
2018-09-22T09:16:19.853Z,99.90
2018-09-22T09:18:48.041Z,99.90
2018-09-22T09:21:16.225Z,99.90
2018-09-22T09:23:44.772Z,99.90
2018-09-22T09:26:13.956Z,99.90
2018-09-22T09:28:45.737Z,99.90
2018-09-22T09:31:14.105Z,99.90
2018-09-22T09:33:42.274Z,99.90
2018-09-22T09:36:10.444Z,99.90
2018-09-22T09:38:38.636Z,99.90
2018-09-22T09:41:06.932Z,99.90
2018-09-22T09:43:35.136Z,99.90
2018-09-22T09:46:03.538Z,99.90
2018-09-22T09:48:32.312Z,99.90
2018-09-22T09:51:00.428Z,99.90
2018-09-22T09:53:29.204Z,99.90
2018-09-22T09:55:57.866Z,99.90
2018-09-22T09:58:26.055Z,99.90
2018-09-22T10:00:54.221Z,99.90
2018-09-22T10:03:22.416Z,99.90
2018-09-22T10:05:51.296Z,99.50
2018-09-22T10:08:19.480Z,99.60
2018-09-22T10:10:47.648Z,99.30
2018-09-22T10:13:15.902Z,99.40
2018-09-22T10:15:44.132Z,98.10
2018-09-22T10:18:12.302Z,97.40
2018-09-22T10:20:40.483Z,97.00
2018-09-22T10:23:08.933Z,95.70
2018-09-22T10:25:37.424Z,97.70
2018-09-22T10:28:05.604Z,97.00
2018-09-22T10:30:33.752Z,96.90
2018-09-22T10:33:01.903Z,97.00
2018-09-22T10:35:30.079Z,97.10
2018-09-22T10:37:58.238Z,97.30
2018-09-22T10:40:26.876Z,97.80
2018-09-22T10:42:55.472Z,97.60
2018-09-22T10:45:24.149Z,98.00
2018-09-22T10:47:52.653Z,98.50
2018-09-22T10:50:21.403Z,98.80
2018-09-22T10:52:49.641Z,99.20
2018-09-22T10:55:17.740Z,98.60
2018-09-22T10:57:45.868Z,98.70
2018-09-22T11:00:14.972Z,98.90
2018-09-22T11:02:43.204Z,97.20
2018-09-22T11:05:11.345Z,97.70
2018-09-22T11:07:39.529Z,97.90
2018-09-22T11:10:07.696Z,98.60
2018-09-22T11:12:37.195Z,97.90
2018-09-22T11:15:05.479Z,97.70
2018-09-22T11:17:33.937Z,97.70
2018-09-22T11:20:03.649Z,97.40
2018-09-22T11:22:32.270Z,97.50
2018-09-22T11:25:00.417Z,98.00
2018-09-22T11:27:28.536Z,98.10
2018-09-22T11:29:56.677Z,98.20
2018-09-22T11:32:24.865Z,98.90
2018-09-22T11:34:53.040Z,98.40
2018-09-22T11:37:21.225Z,98.00
2018-09-22T11:39:50.004Z,98.40
2018-09-22T11:42:18.456Z,98.70
2018-09-22T11:44:46.604Z,99.80
2018-09-22T11:47:14.845Z,99.90
2018-09-22T11:49:43.037Z,99.90
2018-09-22T11:52:11.819Z,99.90
2018-09-22T11:54:39.969Z,99.90
2018-09-22T11:57:08.204Z,99.90
2018-09-22T11:59:36.716Z,99.90
2018-09-22T12:02:05.528Z,99.90
2018-09-22T12:04:33.679Z,99.90
2018-09-22T12:07:02.844Z,99.80
2018-09-22T12:09:30.980Z,99.90
2018-09-22T12:11:59.121Z,99.90
2018-09-22T12:14:27.321Z,99.90
2018-09-22T12:16:55.512Z,99.90
2018-09-22T12:19:23.728Z,99.90
2018-09-22T12:21:51.905Z,99.90
2018-09-22T12:24:20.078Z,99.50
2018-09-22T12:26:52.108Z,99.30
2018-09-22T12:29:20.980Z,99.40
2018-09-22T12:31:49.153Z,99.30
2018-09-22T12:34:17.736Z,99.50
2018-09-22T12:36:46.680Z,99.90
2018-09-22T12:39:15.679Z,99.90
2018-09-22T12:41:44.370Z,99.90
2018-09-22T12:44:12.899Z,99.90
2018-09-22T12:46:40.992Z,99.90
2018-09-22T12:49:09.211Z,99.90
2018-09-22T12:51:37.341Z,99.90
2018-09-22T12:54:05.569Z,99.90
2018-09-22T12:56:33.754Z,99.90
2018-09-22T12:59:02.808Z,99.90
2018-09-22T13:01:31.225Z,99.90
2018-09-22T13:03:59.337Z,99.90
2018-09-22T13:06:27.544Z,99.90
2018-09-22T13:08:56.967Z,99.90
2018-09-22T13:11:25.168Z,99.90
2018-09-22T13:13:53.361Z,99.90
2018-09-22T13:16:21.516Z,99.90
2018-09-22T13:18:50.252Z,99.90
2018-09-22T13:21:20.051Z,99.90
2018-09-22T13:23:48.332Z,99.90
2018-09-22T13:26:16.461Z,99.90
2018-09-22T13:28:44.605Z,99.90
2018-09-22T13:31:12.760Z,99.90
2018-09-22T13:33:40.933Z,99.90
2018-09-22T13:36:09.144Z,99.90
2018-09-22T13:38:37.448Z,99.90
2018-09-22T13:41:05.564Z,99.90
2018-09-22T13:43:35.064Z,99.90
2018-09-22T13:46:03.257Z,99.90
2018-09-22T13:48:31.496Z,99.90
2018-09-22T13:50:59.782Z,99.90
2018-09-22T13:53:27.860Z,99.90
2018-09-22T13:55:56.020Z,99.90
2018-09-22T13:58:24.161Z,99.90
2018-09-22T14:00:52.345Z,99.90
2018-09-22T14:03:20.529Z,99.90
2018-09-22T14:05:48.724Z,99.90
2018-09-22T14:08:16.903Z,99.90
2018-09-22T14:10:47.172Z,99.90
2018-09-22T14:13:16.191Z,99.90
2018-09-22T14:15:44.392Z,99.90
2018-09-22T14:18:12.540Z,99.90
2018-09-22T14:20:40.727Z,99.60
2018-09-22T14:23:08.912Z,99.30
2018-09-22T14:25:37.057Z,99.20
2018-09-22T14:28:05.226Z,98.70
2018-09-22T14:30:33.393Z,98.80
2018-09-22T14:33:01.530Z,99.20
2018-09-22T14:35:30.687Z,98.50
2018-09-22T14:37:58.949Z,99.10
2018-09-22T14:40:29.430Z,99.10
2018-09-22T14:42:57.525Z,99.20
2018-09-22T14:45:26.492Z,99.60
2018-09-22T14:47:54.652Z,98.70
2018-09-22T14:50:23.328Z,99.00
2018-09-22T14:52:51.888Z,99.00
2018-09-22T14:55:20.704Z,98.60
2018-09-22T14:57:49.563Z,98.60
2018-09-22T15:00:18.448Z,98.80
2018-09-22T15:02:46.992Z,98.70
2018-09-22T15:05:15.638Z,98.70
2018-09-22T15:07:44.141Z,98.70
2018-09-22T15:10:12.348Z,99.00
2018-09-22T15:12:40.580Z,99.00
2018-09-22T15:15:08.748Z,98.50
2018-09-22T15:17:37.464Z,99.00
2018-09-22T15:20:05.888Z,98.60
2018-09-22T15:22:35.433Z,99.00
2018-09-22T15:25:04.466Z,99.20
2018-09-22T15:27:32.694Z,99.00
2018-09-22T15:30:00.857Z,99.30
2018-09-22T15:32:28.968Z,99.30
2018-09-22T15:34:57.185Z,99.60
2018-09-22T15:37:25.413Z,99.90
2018-09-22T15:39:54.495Z,99.50
2018-09-22T15:42:22.697Z,99.60
2018-09-22T15:44:50.908Z,99.60
2018-09-22T15:47:20.024Z,99.50
2018-09-22T15:49:48.133Z,99.60
2018-09-22T15:52:16.388Z,99.90
2018-09-22T15:54:44.485Z,99.90
2018-09-22T15:57:12.624Z,99.90
2018-09-22T15:59:40.769Z,99.70
2018-09-22T16:02:09.562Z,99.90
2018-09-22T16:04:38.058Z,99.90
2018-09-22T16:07:06.240Z,99.90
2018-09-22T16:09:35.396Z,99.90
2018-09-22T16:12:03.544Z,99.90
2018-09-22T16:14:31.742Z,99.90
2018-09-22T16:16:59.929Z,99.90
2018-09-22T16:19:28.241Z,99.90
2018-09-22T16:21:56.445Z,99.90
2018-09-22T16:24:24.597Z,99.90
2018-09-22T16:26:52.749Z,99.90
2018-09-22T16:29:20.915Z,99.90
2018-09-22T16:31:49.465Z,99.90
2018-09-22T16:34:17.661Z,99.90
2018-09-22T16:36:46.960Z,99.90
2018-09-22T16:39:15.085Z,99.90
2018-09-22T16:41:43.260Z,99.90
2018-09-22T16:44:12.906Z,99.90
2018-09-22T16:46:41.083Z,99.90
2018-09-22T16:49:09.394Z,99.90
2018-09-22T16:51:38.035Z,99.90
2018-09-22T16:54:06.232Z,99.90
2018-09-22T16:56:34.440Z,99.90
2018-09-22T16:59:02.645Z,99.90
2018-09-22T17:01:31.463Z,99.90
2018-09-22T17:03:59.714Z,99.90
2018-09-22T17:06:28.259Z,99.90
2018-09-22T17:08:56.637Z,99.90
2018-09-22T17:11:24.857Z,99.90
2018-09-22T17:13:53.050Z,99.90
2018-09-22T17:16:21.289Z,99.90
2018-09-22T17:18:49.389Z,99.90
2018-09-22T17:21:17.590Z,99.90
2018-09-22T17:23:45.818Z,99.90
2018-09-22T17:26:15.063Z,99.90
2018-09-22T17:28:43.585Z,99.90
2018-09-22T17:31:11.899Z,99.90
2018-09-22T17:33:40.129Z,99.90
2018-09-22T17:36:08.297Z,99.90
2018-09-22T17:38:36.809Z,99.90
2018-09-22T17:41:05.003Z,99.90
2018-09-22T17:43:34.373Z,99.90
2018-09-22T17:46:02.517Z,99.90
2018-09-22T17:48:30.724Z,99.90
2018-09-22T17:50:59.293Z,99.90
2018-09-22T17:53:27.707Z,99.90
2018-09-22T17:55:55.632Z,99.90
2018-09-22T17:58:23.788Z,99.90
2018-09-22T18:00:52.002Z,99.90
2018-09-22T18:03:20.181Z,99.90
2018-09-22T18:05:49.297Z,99.90
2018-09-22T18:08:17.480Z,99.90
2018-09-22T18:10:46.075Z,99.90
2018-09-22T18:13:14.389Z,99.90
2018-09-22T18:15:42.586Z,99.90
2018-09-22T18:18:11.361Z,99.90
2018-09-22T18:20:39.557Z,99.90
2018-09-22T18:23:07.723Z,99.90
2018-09-22T18:25:35.874Z,99.90
2018-09-22T18:28:04.441Z,99.90
2018-09-22T18:30:32.849Z,99.90
2018-09-22T18:33:01.910Z,99.90
2018-09-22T18:35:34.201Z,99.90
2018-09-22T18:38:02.754Z,99.90
2018-09-22T18:40:30.934Z,99.90
2018-09-22T18:42:59.800Z,99.90
2018-09-22T18:45:28.044Z,99.90
2018-09-22T18:47:56.852Z,99.90
2018-09-22T18:50:25.037Z,99.90
2018-09-22T18:52:53.230Z,99.90
2018-09-22T18:55:21.386Z,99.90
2018-09-22T18:57:49.960Z,99.90
2018-09-22T19:00:18.134Z,99.90
2018-09-22T19:02:46.925Z,99.90
2018-09-22T19:05:15.701Z,99.90
2018-09-22T19:07:43.852Z,99.90
2018-09-22T19:10:12.053Z,99.90
2018-09-22T19:12:41.297Z,99.90
2018-09-22T19:15:15.579Z,99.90
2018-09-22T19:18:49.745Z,99.90
2018-09-22T19:23:26.789Z,99.90
2018-09-22T19:25:59.668Z,99.90
2018-09-22T19:28:33.346Z,99.90
2018-09-22T19:31:05.181Z,99.90
2018-09-22T19:33:37.985Z,99.90
2018-09-22T19:36:15.696Z,99.90
2018-09-22T19:39:18.965Z,99.90
2018-09-22T19:42:23.712Z,99.90
2018-09-22T19:45:02.322Z,99.90
2018-09-22T19:47:41.378Z,99.90
2018-09-22T19:50:12.082Z,99.90
2018-09-22T19:52:44.139Z,99.90
2018-09-22T19:55:12.325Z,99.90
2018-09-22T19:57:40.517Z,99.90
2018-09-22T20:00:09.189Z,99.90
2018-09-22T20:02:37.805Z,99.90
2018-09-22T20:05:06.652Z,99.90
2018-09-22T20:07:35.013Z,99.90
2018-09-22T20:10:04.027Z,99.90
2018-09-22T20:12:32.201Z,99.90
2018-09-22T20:15:01.837Z,99.90
2018-09-22T20:17:32.687Z,99.90
2018-09-22T20:20:00.794Z,99.90
2018-09-22T20:22:28.988Z,99.90
2018-09-22T20:24:57.812Z,99.90
2018-09-22T20:27:26.337Z,99.90
2018-09-22T20:29:54.506Z,99.90
2018-09-22T20:32:22.684Z,99.90
2018-09-22T20:34:50.842Z,99.90
2018-09-22T20:37:19.103Z,99.90
2018-09-22T20:39:47.977Z,99.90
2018-09-22T20:42:17.116Z,99.90
2018-09-22T20:44:45.293Z,99.90
2018-09-22T20:47:14.060Z,99.90
2018-09-22T20:49:43.120Z,99.90
2018-09-22T20:52:11.264Z,99.90
2018-09-22T20:54:39.386Z,99.90
2018-09-22T20:57:07.539Z,99.90
2018-09-22T20:59:36.013Z,99.90
2018-09-22T21:02:04.456Z,99.90
2018-09-22T21:04:32.614Z,99.90
2018-09-22T21:07:00.758Z,99.90
2018-09-22T21:09:28.901Z,99.90
2018-09-22T21:11:57.044Z,99.90
2018-09-22T21:14:25.720Z,99.90
2018-09-22T21:16:55.968Z,99.90
2018-09-22T21:19:24.155Z,99.90
2018-09-22T21:21:52.297Z,99.90
2018-09-22T21:24:20.492Z,99.90
2018-09-22T21:26:48.612Z,99.90
2018-09-22T21:29:16.765Z,99.90
2018-09-22T21:31:44.976Z,99.90
2018-09-22T21:34:13.092Z,99.90
2018-09-22T21:36:41.249Z,99.90
2018-09-22T21:39:10.684Z,99.90
2018-09-22T21:41:39.540Z,99.90
2018-09-22T21:44:07.736Z,99.90
2018-09-22T21:46:35.856Z,99.90
2018-09-22T21:49:04.796Z,99.90
2018-09-22T21:51:32.972Z,99.90
2018-09-22T21:54:02.032Z,99.90
2018-09-22T21:56:30.228Z,99.90
2018-09-22T21:58:58.414Z,99.90
2018-09-22T22:01:31.848Z,99.90
2018-09-22T22:04:00.009Z,99.90
2018-09-22T22:06:28.157Z,99.90
2018-09-22T22:08:56.329Z,99.90
2018-09-22T22:11:24.967Z,99.90
2018-09-22T22:13:53.169Z,99.90
2018-09-22T22:16:21.376Z,99.90
2018-09-22T22:18:49.549Z,99.90
2018-09-22T22:21:17.732Z,99.90
2018-09-22T22:23:45.959Z,99.90
2018-09-22T22:26:14.076Z,99.90
2018-09-22T22:28:42.284Z,99.90
2018-09-22T22:31:10.408Z,99.90
2018-09-22T22:33:38.593Z,99.90
2018-09-22T22:36:07.749Z,99.90
2018-09-22T22:38:35.943Z,99.90
2018-09-22T22:41:04.117Z,99.90
2018-09-22T22:43:32.286Z,99.90
2018-09-22T22:46:00.473Z,99.90
2018-09-22T22:48:28.648Z,99.90
2018-09-22T22:50:57.671Z,99.90
2018-09-22T22:53:25.789Z,99.90
2018-09-22T22:55:54.688Z,99.90
2018-09-22T22:58:23.594Z,99.90
2018-09-22T23:00:53.490Z,99.90
2018-09-22T23:03:21.701Z,99.90
2018-09-22T23:05:50.133Z,99.90
2018-09-22T23:08:19.600Z,99.90
2018-09-22T23:10:48.548Z,99.90
2018-09-22T23:13:16.689Z,99.90
2018-09-22T23:15:44.812Z,99.90
2018-09-22T23:18:12.997Z,99.90
2018-09-22T23:20:41.956Z,99.90
2018-09-22T23:23:10.117Z,99.90
2018-09-22T23:25:38.313Z,99.90
2018-09-22T23:28:06.480Z,99.90
2018-09-22T23:30:35.045Z,99.90
2018-09-22T23:33:05.456Z,99.90
2018-09-22T23:35:33.624Z,99.90
2018-09-22T23:38:01.777Z,99.90
2018-09-22T23:40:29.917Z,99.90
2018-09-22T23:42:58.069Z,99.90
2018-09-22T23:45:26.237Z,99.90
2018-09-22T23:47:54.365Z,99.90
2018-09-22T23:50:22.792Z,99.90
2018-09-22T23:52:51.196Z,99.90
2018-09-22T23:55:19.368Z,99.90
2018-09-22T23:57:47.523Z,99.90
